Time;durP1;ratioP1;P1;durP2;ratioP2;P2;SDS_P1;SDS_P2;PMS_P1;PMS_P2;Temp;Humidity;BMP_temperature;BMP_pressure;BME280_temperature;BME280_humidity;BME280_pressure;Samples;Min_cycle;Max_cycle;Signal;HPM_P1;HPM_P2
2022/05/04 00:00:19;;;;;;;25.60;7.30;;;18.10;76.20;;;;;;5054933;28;20024;-61
2022/05/04 00:02:44;;;;;;;20.77;6.88;;;18.10;76.30;;;;;;5079362;28;20063;-62
2022/05/04 00:05:10;;;;;;;19.30;6.70;;;18.10;76.20;;;;;;5083066;28;20696;-60
2022/05/04 00:07:36;;;;;;;24.75;6.55;;;18.10;76.30;;;;;;5080267;28;20464;-62
2022/05/04 00:10:01;;;;;;;16.90;6.45;;;18.10;76.40;;;;;;5062493;28;20569;-60
2022/05/04 00:12:27;;;;;;;21.48;6.38;;;18.00;76.50;;;;;;5079743;28;20075;-62
2022/05/04 00:14:53;;;;;;;24.25;7.30;;;18.00;76.60;;;;;;5076832;28;20474;-61
2022/05/04 00:17:18;;;;;;;29.75;7.72;;;18.00;76.70;;;;;;5043439;28;20032;-61
2022/05/04 00:19:44;;;;;;;29.15;7.60;;;18.00;76.60;;;;;;5047303;28;20103;-60
2022/05/04 00:22:09;;;;;;;22.77;7.57;;;18.00;76.60;;;;;;5062095;28;20103;-60
2022/05/04 00:24:35;;;;;;;23.88;7.18;;;17.90;76.60;;;;;;5083267;28;20458;-60
2022/05/04 00:27:00;;;;;;;15.02;6.63;;;17.90;76.80;;;;;;5049554;28;20108;-62
2022/05/04 00:29:26;;;;;;;16.27;5.95;;;17.90;76.80;;;;;;5077904;28;20456;-61
2022/05/04 00:31:51;;;;;;;24.80;6.93;;;17.80;76.90;;;;;;5048091;28;20115;-61
2022/05/04 00:34:17;;;;;;;22.60;7.13;;;17.90;76.90;;;;;;5036979;28;20115;-61
2022/05/04 00:36:42;;;;;;;20.27;6.72;;;17.80;76.80;;;;;;5048793;28;20087;-61
2022/05/04 00:39:08;;;;;;;15.50;6.22;;;17.80;76.90;;;;;;5080981;28;20044;-61
2022/05/04 00:41:33;;;;;;;25.88;6.93;;;17.80;76.90;;;;;;5081476;28;20093;-61
2022/05/04 00:43:59;;;;;;;23.67;7.13;;;17.80;76.90;;;;;;5055956;28;20084;-61
2022/05/04 00:46:24;;;;;;;20.02;6.95;;;17.80;76.90;;;;;;5061518;28;20091;-61
2022/05/04 00:48:50;;;;;;;26.23;6.65;;;17.80;76.90;;;;;;5074448;28;20553;-61
2022/05/04 00:51:15;;;;;;;19.25;5.75;;;17.80;76.90;;;;;;5074103;28;20346;-62
2022/05/04 00:53:42;;;;;;;18.90;7.40;;;17.70;76.90;;;;;;5034536;28;20043;-61
2022/05/04 00:56:08;;;;;;;20.92;7.03;;;17.70;77.00;;;;;;5049712;28;20051;-61
2022/05/04 01:01:30;;;;;;;18.58;6.18;;;17.70;77.20;;;;;;5039549;28;20043;-61
2022/05/04 01:03:56;;;;;;;12.65;6.22;;;17.70;77.20;;;;;;5080530;28;20078;-61
2022/05/04 01:06:22;;;;;;;18.70;5.70;;;17.60;77.00;;;;;;5040569;28;20392;-61
2022/05/04 01:08:48;;;;;;;15.48;6.53;;;17.60;77.10;;;;;;5062616;28;20032;-64
2022/05/04 01:11:13;;;;;;;12.40;5.25;;;17.60;77.10;;;;;;5057193;28;20197;-63
2022/05/04 01:13:39;;;;;;;17.38;5.20;;;17.60;77.20;;;;;;5079314;28;20111;-61
2022/05/04 01:16:04;;;;;;;18.92;6.22;;;17.50;77.30;;;;;;5077254;28;20100;-61
2022/05/04 01:18:30;;;;;;;15.25;5.30;;;17.50;77.20;;;;;;5081608;28;20032;-62
2022/05/04 01:20:55;;;;;;;13.80;5.95;;;17.50;77.30;;;;;;5045880;28;20025;-61
2022/05/04 01:23:21;;;;;;;16.95;5.38;;;17.50;77.30;;;;;;5083103;28;20032;-60
2022/05/04 01:25:46;;;;;;;13.52;6.03;;;17.50;77.30;;;;;;5079081;28;20400;-60
2022/05/04 01:28:12;;;;;;;15.45;5.78;;;17.50;77.40;;;;;;5080717;28;20031;-62
2022/05/04 01:30:38;;;;;;;12.57;5.65;;;17.40;77.30;;;;;;5057394;28;20052;-61
2022/05/04 01:33:03;;;;;;;16.65;5.65;;;17.40;77.40;;;;;;5081217;28;20376;-62
2022/05/04 01:35:29;;;;;;;12.98;5.82;;;17.40;77.50;;;;;;5037812;28;20039;-60
2022/05/04 01:37:55;;;;;;;14.85;6.20;;;17.40;77.50;;;;;;5082288;28;20040;-60
2022/05/04 01:40:20;;;;;;;16.05;6.22;;;17.40;77.50;;;;;;5057371;28;20028;-61
2022/05/04 01:42:46;;;;;;;11.93;6.07;;;17.30;77.50;;;;;;5078861;28;20089;-60
2022/05/04 01:45:11;;;;;;;12.77;7.47;;;17.30;77.70;;;;;;5058334;28;20043;-60
2022/05/04 01:47:37;;;;;;;17.15;7.30;;;17.30;77.80;;;;;;5059367;28;20047;-61
2022/05/04 01:50:03;;;;;;;9.40;5.40;;;17.20;77.80;;;;;;5058078;28;20023;-61
2022/05/04 01:52:29;;;;;;;9.40;6.07;;;17.20;77.70;;;;;;5081886;28;20038;-60
2022/05/04 01:54:55;;;;;;;15.82;5.57;;;17.20;77.80;;;;;;5081298;28;20340;-60
2022/05/04 01:57:21;;;;;;;18.98;6.40;;;17.20;77.90;;;;;;5059397;28;20036;-61
2022/05/04 01:59:46;;;;;;;23.73;6.85;;;17.20;77.80;;;;;;5059852;28;20728;-62
2022/05/04 02:02:12;;;;;;;20.42;7.07;;;17.10;77.80;;;;;;5041963;28;20047;-60
2022/05/04 02:04:37;;;;;;;28.67;7.72;;;17.10;77.90;;;;;;5059740;28;20864;-61
2022/05/04 02:07:03;;;;;;;21.23;6.72;;;17.10;77.90;;;;;;5059389;28;20024;-61
2022/05/04 02:09:29;;;;;;;30.25;7.70;;;17.10;77.90;;;;;;5056496;28;20393;-61
2022/05/04 02:11:55;;;;;;;22.73;8.18;;;17.10;78.00;;;;;;5077510;28;20043;-61
2022/05/04 02:14:20;;;;;;;26.55;7.82;;;17.00;78.00;;;;;;5062065;28;20042;-62
2022/05/04 02:16:46;;;;;;;27.70;7.47;;;17.00;78.10;;;;;;5052140;28;20115;-61
2022/05/04 02:19:12;;;;;;;13.52;6.72;;;17.00;78.10;;;;;;5062294;28;21020;-61
2022/05/04 02:21:37;;;;;;;20.23;6.30;;;16.90;78.10;;;;;;5076760;28;20345;-60
2022/05/04 02:24:03;;;;;;;20.88;7.05;;;16.90;78.20;;;;;;5075989;28;20047;-61
2022/05/04 02:26:28;;;;;;;19.38;6.45;;;16.90;78.40;;;;;;5079395;28;20087;-62
2022/05/04 02:28:54;;;;;;;16.50;6.53;;;16.90;78.40;;;;;;5078912;28;20176;-60
2022/05/04 02:31:20;;;;;;;14.55;6.20;;;16.90;78.40;;;;;;5060562;28;20051;-61
2022/05/04 02:33:47;;;;;;;14.25;6.63;;;16.90;78.40;;;;;;5081896;28;20107;-60
2022/05/04 02:38:57;;;;;;;12.93;6.15;;;16.80;78.20;;;;;;5077087;28;20047;-61
2022/05/04 02:41:23;;;;;;;19.02;7.13;;;16.80;78.40;;;;;;5057926;28;20319;-60
2022/05/04 02:43:49;;;;;;;21.67;7.38;;;16.80;78.30;;;;;;5080097;28;20130;-61
2022/05/04 02:46:19;;;;;;;19.35;6.65;;;16.80;78.40;;;;;;5054803;28;20123;-61
2022/05/04 02:48:45;;;;;;;19.67;6.78;;;16.80;78.30;;;;;;5058958;28;20504;-61
2022/05/04 02:51:11;;;;;;;14.20;6.38;;;16.80;78.30;;;;;;5081644;28;20048;-61
2022/05/04 02:53:36;;;;;;;19.88;6.30;;;16.80;78.40;;;;;;5047242;28;20039;-60
2022/05/04 02:56:02;;;;;;;18.10;7.43;;;16.80;78.40;;;;;;5080663;28;20035;-61
2022/05/04 02:58:28;;;;;;;13.85;6.53;;;16.70;78.40;;;;;;5071015;28;20053;-61
2022/05/04 03:00:54;;;;;;;11.57;5.80;;;16.70;78.50;;;;;;5057652;28;20616;-60
2022/05/04 03:03:19;;;;;;;14.73;6.25;;;16.70;78.60;;;;;;5056849;28;20113;-61
2022/05/04 03:05:45;;;;;;;18.42;6.88;;;16.70;78.60;;;;;;5051305;28;20028;-61
2022/05/04 03:08:10;;;;;;;10.75;5.70;;;16.70;78.70;;;;;;5063482;28;20054;-61
2022/05/04 03:13:22;;;;;;;14.55;6.22;;;16.70;78.70;;;;;;5048707;28;20032;-62
2022/05/04 03:15:47;;;;;;;10.05;5.75;;;16.60;78.70;;;;;;5081377;28;20028;-61
2022/05/04 03:18:13;;;;;;;16.35;5.80;;;16.60;78.70;;;;;;5056795;28;20135;-60
2022/05/04 03:20:38;;;;;;;12.80;5.90;;;16.60;78.70;;;;;;5059873;28;20085;-61
2022/05/04 03:23:04;;;;;;;12.23;5.22;;;16.60;78.80;;;;;;5054868;28;20084;-61
2022/05/04 03:25:29;;;;;;;14.27;6.78;;;16.60;78.70;;;;;;5054568;28;20119;-61
2022/05/04 03:27:55;;;;;;;10.07;5.00;;;16.60;78.70;;;;;;5062490;28;20026;-60
2022/05/04 03:30:20;;;;;;;12.25;5.30;;;16.50;78.70;;;;;;5080283;28;20028;-60
2022/05/04 03:32:46;;;;;;;9.90;5.50;;;16.50;78.70;;;;;;5081332;28;20132;-60
2022/05/04 03:35:11;;;;;;;12.02;5.22;;;16.50;78.70;;;;;;5080588;28;20530;-61
2022/05/04 03:37:37;;;;;;;15.63;5.72;;;16.50;78.70;;;;;;5083071;28;20589;-60
2022/05/04 03:40:03;;;;;;;9.15;5.63;;;16.40;78.70;;;;;;5083807;28;20032;-60
2022/05/04 03:42:28;;;;;;;8.43;5.57;;;16.40;78.90;;;;;;5065128;28;20028;-61
2022/05/04 03:44:54;;;;;;;12.82;5.50;;;16.40;78.90;;;;;;5080392;28;20323;-61
2022/05/04 03:47:19;;;;;;;12.45;5.28;;;16.40;79.00;;;;;;5084754;28;20040;-61
2022/05/04 03:49:45;;;;;;;16.58;5.55;;;16.40;79.20;;;;;;5062231;28;20028;-62
2022/05/04 03:52:11;;;;;;;11.23;5.60;;;16.40;79.20;;;;;;5083718;28;20039;-61
2022/05/04 03:54:36;;;;;;;9.07;6.13;;;16.30;79.10;;;;;;5065466;28;20024;-61
2022/05/04 03:57:03;;;;;;;7.35;5.70;;;16.30;79.20;;;;;;5047825;28;20130;-62
2022/05/04 03:59:29;;;;;;;10.30;5.57;;;16.30;79.30;;;;;;5061226;28;20028;-62
2022/05/04 04:01:55;;;;;;;15.35;6.07;;;16.30;79.20;;;;;;5080033;28;20040;-61
2022/05/04 04:04:20;;;;;;;13.82;5.80;;;16.30;79.30;;;;;;5080713;28;20062;-61
2022/05/04 04:06:46;;;;;;;9.88;5.45;;;16.20;79.20;;;;;;5046356;28;20062;-61
2022/05/04 04:09:11;;;;;;;16.98;5.50;;;16.20;79.30;;;;;;5077067;28;20044;-62
2022/05/04 04:11:37;;;;;;;10.10;5.35;;;16.20;79.30;;;;;;5081475;28;20028;-60
2022/05/04 04:14:02;;;;;;;9.75;5.30;;;16.20;79.30;;;;;;5081318;28;20114;-61
2022/05/04 04:16:29;;;;;;;7.82;5.32;;;16.20;79.40;;;;;;5081472;28;20141;-60
2022/05/04 04:18:54;;;;;;;8.40;4.85;;;16.20;79.30;;;;;;5082495;28;20471;-61
2022/05/04 04:24:04;;;;;;;9.70;5.78;;;16.10;79.30;;;;;;5081283;28;20086;-61
2022/05/04 04:26:30;;;;;;;9.30;5.38;;;16.20;79.30;;;;;;5081386;28;20100;-60
2022/05/04 04:28:55;;;;;;;12.10;4.72;;;16.10;79.40;;;;;;5057586;28;20036;-60
2022/05/04 04:31:21;;;;;;;10.00;4.93;;;16.00;79.40;;;;;;5054780;28;20036;-60
2022/05/04 04:33:47;;;;;;;8.18;5.00;;;16.00;79.50;;;;;;5060486;28;20526;-61
2022/05/04 04:36:12;;;;;;;45.60;8.27;;;16.00;79.40;;;;;;5077736;28;20589;-61
2022/05/04 04:38:38;;;;;;;39.80;8.55;;;16.00;79.50;;;;;;5059281;28;20174;-61
2022/05/04 04:41:03;;;;;;;41.63;8.68;;;16.00;79.50;;;;;;5080086;28;20056;-61
2022/05/04 04:43:29;;;;;;;36.92;7.93;;;16.00;79.40;;;;;;5063388;28;20040;-61
2022/05/04 04:45:54;;;;;;;31.52;8.85;;;16.00;79.40;;;;;;5077642;28;20032;-60
2022/05/04 04:48:21;;;;;;;33.13;6.97;;;16.00;79.40;;;;;;5063036;28;20079;-61
2022/05/04 04:50:47;;;;;;;31.10;7.35;;;16.00;79.40;;;;;;5064055;28;20500;-60
2022/05/04 04:53:13;;;;;;;18.75;6.57;;;16.00;79.40;;;;;;5047437;28;20048;-61
2022/05/04 04:55:42;;;;;;;23.58;6.65;;;16.00;79.40;;;;;;5064220;28;20056;-60
2022/05/04 04:58:07;;;;;;;25.10;7.28;;;16.00;79.40;;;;;;5065802;28;20066;-61
2022/05/04 05:00:33;;;;;;;20.08;6.35;;;16.00;79.30;;;;;;5079203;28;20020;-61
2022/05/04 05:02:58;;;;;;;25.15;6.97;;;16.00;79.30;;;;;;5058690;28;20056;-62
2022/05/04 05:05:24;;;;;;;31.63;7.25;;;16.00;79.20;;;;;;5083853;28;20578;-61
2022/05/04 05:07:49;;;;;;;19.55;6.53;;;15.90;79.10;;;;;;5083697;28;20618;-60
2022/05/04 05:10:15;;;;;;;23.52;6.35;;;16.00;79.30;;;;;;5083638;28;20055;-60
2022/05/04 05:12:40;;;;;;;19.23;5.45;;;16.00;79.20;;;;;;5065550;28;20478;-61
2022/05/04 05:17:50;;;;;;;22.10;6.68;;;15.90;79.30;;;;;;5081677;28;20055;-61
2022/05/04 05:20:16;;;;;;;17.73;5.97;;;15.90;79.40;;;;;;5041916;28;20036;-61
2022/05/04 05:22:41;;;;;;;18.77;6.30;;;15.90;79.60;;;;;;5059625;28;20041;-61
2022/05/04 05:25:07;;;;;;;26.40;6.43;;;15.90;79.80;;;;;;5062606;28;20502;-61
2022/05/04 05:27:33;;;;;;;31.88;6.63;;;15.90;79.70;;;;;;5082964;28;20035;-61
2022/05/04 05:29:58;;;;;;;21.80;6.30;;;15.90;79.70;;;;;;5056398;28;20031;-63
2022/05/04 05:32:24;;;;;;;24.23;6.53;;;15.90;79.90;;;;;;5077530;28;20523;-64
2022/05/04 05:34:50;;;;;;;21.83;6.05;;;15.90;80.00;;;;;;5081026;28;20139;-61
2022/05/04 05:37:16;;;;;;;26.35;6.28;;;15.90;79.90;;;;;;5080809;28;20552;-61
2022/05/04 05:39:42;;;;;;;28.25;6.32;;;15.90;80.00;;;;;;5072112;28;20036;-63
2022/05/04 05:42:08;;;;;;;26.38;6.68;;;15.90;80.00;;;;;;5075944;28;20043;-61
2022/05/04 05:44:33;;;;;;;19.83;5.93;;;15.90;80.00;;;;;;5074749;28;20722;-61
2022/05/04 05:46:59;;;;;;;15.70;6.15;;;15.90;80.00;;;;;;5058025;28;20036;-62
2022/05/04 05:49:25;;;;;;;23.55;6.47;;;15.90;80.00;;;;;;5054585;28;20070;-63
2022/05/04 05:51:51;;;;;;;20.17;6.25;;;15.90;80.00;;;;;;5076406;28;20459;-61
2022/05/04 05:54:16;;;;;;;22.52;6.22;;;15.90;80.20;;;;;;5074317;28;20016;-61
2022/05/04 05:56:42;;;;;;;27.80;7.45;;;15.90;80.00;;;;;;5047890;28;20065;-61
2022/05/04 05:59:07;;;;;;;20.45;6.53;;;16.00;80.20;;;;;;5069153;28;20040;-61
2022/05/04 06:01:33;;;;;;;22.98;6.60;;;16.00;80.10;;;;;;5058314;28;20665;-61
2022/05/04 06:03:58;;;;;;;25.23;5.82;;;15.90;80.00;;;;;;5073313;28;20487;-60
2022/05/04 06:06:24;;;;;;;21.98;6.10;;;16.00;80.10;;;;;;5075226;28;21257;-62
2022/05/04 06:08:49;;;;;;;21.35;6.20;;;16.00;80.00;;;;;;5073873;28;20111;-63
2022/05/04 06:11:15;;;;;;;20.60;6.10;;;16.00;80.00;;;;;;5075006;28;20093;-61
2022/05/04 06:13:40;;;;;;;22.30;6.22;;;16.00;80.00;;;;;;5078368;28;20032;-61
2022/05/04 06:16:06;;;;;;;18.10;5.60;;;15.90;79.90;;;;;;5077517;28;20319;-64
2022/05/04 06:18:31;;;;;;;20.20;6.57;;;16.00;79.90;;;;;;5069365;28;20464;-61
2022/05/04 06:20:59;;;;;;;21.23;6.13;;;16.00;80.00;;;;;;5038775;28;20024;-61
2022/05/04 06:23:25;;;;;;;21.08;6.03;;;16.00;79.90;;;;;;5052545;28;20406;-61
2022/05/04 06:25:50;;;;;;;16.75;5.95;;;16.00;79.80;;;;;;5055115;28;20856;-65
2022/05/04 06:28:15;;;;;;;17.27;6.00;;;16.00;79.80;;;;;;5074236;28;20025;-63
2022/05/04 06:36:09;;;;;;;23.95;6.35;;;16.00;79.80;;;;;;5076318;28;20058;-60
2022/05/04 06:38:35;;;;;;;33.88;6.65;;;16.10;79.90;;;;;;5037378;28;20464;-62
2022/05/04 06:41:00;;;;;;;20.92;6.90;;;16.10;79.90;;;;;;5071297;28;20863;-62
2022/05/04 06:43:26;;;;;;;33.35;7.30;;;16.10;79.70;;;;;;5071965;28;20046;-62
2022/05/04 06:45:51;;;;;;;32.15;6.45;;;16.10;80.00;;;;;;5050991;28;20036;-61
2022/05/04 06:48:17;;;;;;;39.58;6.38;;;16.10;79.90;;;;;;5051598;28;20447;-61
2022/05/04 06:50:42;;;;;;;31.92;6.57;;;16.10;79.80;;;;;;5066111;28;20483;-60
2022/05/04 06:53:08;;;;;;;32.92;6.95;;;16.10;79.80;;;;;;5047292;28;20040;-61
2022/05/04 06:55:33;;;;;;;33.45;7.22;;;16.10;80.20;;;;;;5070159;28;20045;-61
2022/05/04 06:57:59;;;;;;;46.95;7.32;;;16.20;80.40;;;;;;5075821;28;20353;-61
2022/05/04 07:00:25;;;;;;;49.05;8.82;;;16.20;80.20;;;;;;5049812;28;20531;-63
2022/05/04 07:02:50;;;;;;;49.28;9.55;;;16.20;81.00;;;;;;5070234;28;20048;-62
2022/05/04 07:05:16;;;;;;;57.35;11.32;;;16.20;82.00;;;;;;5071074;28;20290;-64
2022/05/04 07:07:41;;;;;;;71.25;10.45;;;16.30;81.80;;;;;;5072514;28;20666;-63
2022/05/04 07:10:07;;;;;;;59.15;10.23;;;16.30;81.60;;;;;;5055489;28;20115;-62
2022/05/04 07:12:33;;;;;;;50.03;9.88;;;16.30;81.80;;;;;;5061405;28;20043;-62
2022/05/04 07:14:58;;;;;;;21.38;6.47;;;16.40;81.30;;;;;;5069689;28;20336;-61
2022/05/04 07:17:24;;;;;;;41.00;7.40;;;16.30;80.40;;;;;;5055777;28;20036;-61
2022/05/04 07:19:50;;;;;;;43.65;8.45;;;16.30;80.00;;;;;;5045057;28;20737;-61
2022/05/04 07:22:15;;;;;;;118.13;14.93;;;16.40;80.30;;;;;;5064172;28;20096;-61
2022/05/04 07:24:41;;;;;;;78.28;11.07;;;16.40;81.50;;;;;;5074051;28;20119;-61
2022/05/04 07:27:06;;;;;;;62.33;10.10;;;16.40;81.20;;;;;;5058246;28;20107;-61
2022/05/04 07:29:34;;;;;;;65.03;9.80;;;16.40;81.20;;;;;;5055305;28;20036;-61
2022/05/04 07:31:59;;;;;;;59.72;9.52;;;16.50;81.50;;;;;;5066293;28;20494;-61
2022/05/04 07:34:25;;;;;;;66.63;11.10;;;16.50;81.40;;;;;;5052134;28;20175;-62
2022/05/04 07:36:50;;;;;;;86.72;14.38;;;16.50;81.20;;;;;;5049756;28;20044;-61
2022/05/04 07:44:45;;;;;;;49.72;10.38;;;16.60;80.70;;;;;;5040264;28;20429;-61
2022/05/04 07:47:10;;;;;;;58.40;10.65;;;16.60;80.30;;;;;;5066439;28;20044;-62
2022/05/04 07:49:36;;;;;;;596.28;53.85;;;16.60;80.40;;;;;;5049137;28;20021;-61
2022/05/04 07:52:01;;;;;;;160.93;18.58;;;16.70;80.70;;;;;;5049041;28;20108;-61
2022/05/04 07:54:28;;;;;;;139.10;17.98;;;16.70;81.00;;;;;;5077597;28;21525;-61
2022/05/04 07:56:54;;;;;;;133.57;17.25;;;16.80;81.20;;;;;;5068519;28;20035;-61
2022/05/04 07:59:19;;;;;;;76.63;11.55;;;16.80;81.10;;;;;;5048134;28;20488;-63
2022/05/04 08:04:29;;;;;;;67.88;11.60;;;16.90;80.80;;;;;;5066138;28;20047;-60
2022/05/04 08:06:54;;;;;;;74.80;12.70;;;16.90;80.50;;;;;;5031905;28;20588;-61
2022/05/04 08:09:20;;;;;;;78.80;14.13;;;16.90;80.40;;;;;;5068481;28;20052;-63
2022/05/04 08:11:45;;;;;;;106.25;15.05;;;17.00;80.30;;;;;;5075156;28;20138;-64
2022/05/04 08:14:12;;;;;;;99.75;15.10;;;17.00;80.30;;;;;;5047248;28;20784;-63
2022/05/04 08:16:39;;;;;;;87.07;13.32;;;17.10;80.40;;;;;;5042759;28;20067;-63
2022/05/04 08:19:04;;;;;;;103.70;14.85;;;17.00;80.50;;;;;;5055562;28;20233;-64
2022/05/04 08:21:30;;;;;;;102.97;13.63;;;17.10;80.30;;;;;;5022620;28;20486;-63
2022/05/04 08:23:56;;;;;;;82.75;13.35;;;17.00;80.30;;;;;;5035157;28;20056;-63
2022/05/04 08:26:21;;;;;;;94.68;14.07;;;17.10;80.30;;;;;;5078934;28;20157;-64
2022/05/04 08:28:47;;;;;;;110.05;14.90;;;17.20;80.40;;;;;;5078447;28;20494;-63
2022/05/04 08:31:12;;;;;;;113.65;14.65;;;17.20;80.40;;;;;;5041462;28;20048;-64
2022/05/04 08:33:38;;;;;;;99.97;14.55;;;17.20;80.30;;;;;;5048755;28;20058;-63
2022/05/04 08:36:03;;;;;;;98.82;14.00;;;17.20;80.10;;;;;;5050782;28;20146;-62
2022/05/04 08:38:29;;;;;;;81.00;13.57;;;17.30;79.80;;;;;;5049297;28;20045;-65
2022/05/04 08:40:55;;;;;;;88.28;13.85;;;17.30;79.60;;;;;;5036259;28;20101;-63
2022/05/04 08:43:24;;;;;;;86.50;14.18;;;17.30;79.50;;;;;;5057407;28;20024;-64
2022/05/04 08:45:51;;;;;;;102.28;14.07;;;17.30;79.40;;;;;;5056230;28;20035;-63
2022/05/04 08:48:16;;;;;;;108.43;16.08;;;17.30;79.40;;;;;;5043250;28;20159;-63
2022/05/04 08:50:42;;;;;;;80.43;14.18;;;17.30;79.30;;;;;;5053209;28;20119;-63
2022/05/04 08:53:07;;;;;;;96.30;15.02;;;17.30;79.20;;;;;;5077683;28;20118;-63
2022/05/04 08:55:34;;;;;;;106.57;14.15;;;17.30;79.20;;;;;;5057394;28;20395;-64
2022/05/04 08:57:59;;;;;;;92.60;13.45;;;17.40;79.10;;;;;;5044731;28;20176;-63
2022/05/04 09:00:25;;;;;;;96.10;14.40;;;17.40;79.10;;;;;;5053303;28;20658;-64
2022/05/04 09:02:50;;;;;;;202.35;22.35;;;17.40;79.10;;;;;;5076800;28;20049;-64
2022/05/04 09:05:23;;;;;;;91.60;15.73;;;17.40;79.20;;;;;;5076627;28;20407;-64
2022/05/04 09:07:55;;;;;;;77.97;13.30;;;17.50;78.90;;;;;;5046466;28;20476;-63
2022/05/04 09:10:27;;;;;;;119.07;15.35;;;17.50;78.60;;;;;;5054387;28;20094;-64
2022/05/04 09:12:54;;;;;;;85.32;12.90;;;17.50;78.30;;;;;;5055859;28;20353;-63
2022/05/04 09:15:23;;;;;;;175.45;22.60;;;17.50;78.10;;;;;;5068829;28;20012;-65
2022/05/04 09:17:59;;;;;;;145.15;19.08;;;17.60;78.50;;;;;;5048069;28;20047;-63
2022/05/04 09:20:45;;;;;;;182.25;20.98;;;17.60;78.90;;;;;;5072347;28;20055;-63
2022/05/04 09:23:18;;;;;;;98.45;15.80;;;17.60;78.60;;;;;;5060652;28;20039;-64
2022/05/04 09:25:44;;;;;;;106.18;16.05;;;17.60;78.40;;;;;;5058916;28;20349;-63
2022/05/04 09:28:11;;;;;;;92.43;13.43;;;17.70;78.30;;;;;;5059080;28;20039;-64
2022/05/04 09:30:41;;;;;;;105.28;13.93;;;17.70;77.90;;;;;;5058551;28;20062;-63
2022/05/04 09:33:12;;;;;;;92.75;14.35;;;17.70;77.70;;;;;;5045822;28;20032;-63
2022/05/04 09:35:41;;;;;;;82.63;12.43;;;17.70;77.70;;;;;;5039759;28;20343;-63
2022/05/04 09:46:37;;;;;;;57.42;9.68;;;17.70;77.30;;;;;;5055165;28;20289;-63
2022/05/04 09:49:13;;;;;;;60.60;10.15;;;17.80;77.40;;;;;;5055132;28;20035;-63
2022/05/04 09:51:40;;;;;;;68.53;10.80;;;17.80;77.20;;;;;;5036819;28;20035;-63
2022/05/04 09:54:32;;;;;;;61.17;10.50;;;17.80;77.10;;;;;;5038410;28;20123;-63
2022/05/04 09:57:01;;;;;;;46.67;9.98;;;17.80;77.10;;;;;;5069471;28;20044;-63
2022/05/04 09:59:31;;;;;;;51.17;10.05;;;17.90;76.90;;;;;;5054590;28;20022;-63
2022/05/04 10:01:59;;;;;;;47.13;9.25;;;17.90;76.70;;;;;;5054509;28;20360;-63
2022/05/04 10:04:25;;;;;;;47.95;9.57;;;17.90;76.60;;;;;;5041828;28;20035;-63
2022/05/04 10:06:55;;;;;;;42.50;8.80;;;17.90;76.60;;;;;;5036825;28;20056;-63
2022/05/04 10:09:21;;;;;;;46.03;8.48;;;17.90;76.50;;;;;;5071837;28;20048;-63
2022/05/04 10:11:47;;;;;;;35.75;8.02;;;17.90;76.40;;;;;;5038154;28;20047;-63
2022/05/04 10:14:15;;;;;;;53.80;8.65;;;18.00;76.30;;;;;;5073004;28;20139;-62
2022/05/04 10:16:51;;;;;;;37.05;8.07;;;17.90;76.00;;;;;;5037124;28;20028;-63
2022/05/04 10:19:23;;;;;;;;;;;18.00;75.90;;;;;;5058278;28;20061;-62
2022/05/04 10:21:50;;;;;;;46.03;8.80;;;18.00;76.10;;;;;;5077972;28;21200;-63
2022/05/04 10:24:17;;;;;;;68.68;9.77;;;18.10;75.90;;;;;;5062422;28;20016;-62
2022/05/04 10:26:45;;;;;;;37.88;8.38;;;18.10;76.00;;;;;;5056555;28;20027;-63
2022/05/04 10:32:33;;;;;;;54.15;8.50;;;18.20;76.00;;;;;;5058783;28;20097;-63
2022/05/04 10:35:38;;;;;;;68.82;9.45;;;18.20;75.80;;;;;;5039649;28;20219;-62
2022/05/04 10:38:13;;;;;;;86.63;12.05;;;18.30;75.80;;;;;;5044922;28;20124;-62
2022/05/04 10:40:40;;;;;;;;;;;18.30;76.00;;;;;;5048552;28;20032;-64
2022/05/04 10:43:13;;;;;;;61.72;9.57;;;18.30;75.60;;;;;;5074380;28;19926;-63
2022/05/04 10:45:40;;;;;;;67.47;9.35;;;18.40;75.40;;;;;;5034742;28;20089;-63
2022/05/04 10:48:18;;;;;;;70.90;9.63;;;18.40;75.30;;;;;;5052786;28;20111;-63
2022/05/04 10:50:47;;;;;;;51.05;9.05;;;18.40;75.40;;;;;;5056098;28;20445;-62
2022/05/04 10:53:36;;;;;;;55.10;9.57;;;18.40;74.90;;;;;;5070727;28;20447;-63
2022/05/04 10:56:08;;;;;;;44.85;8.68;;;18.50;74.70;;;;;;5040444;28;20030;-63
2022/05/04 10:58:37;;;;;;;64.85;10.70;;;18.50;74.50;;;;;;5073470;28;20177;-62
2022/05/04 11:01:03;;;;;;;48.70;8.95;;;18.50;74.50;;;;;;5034923;28;20028;-62
2022/05/04 11:03:35;;;;;;;44.00;8.45;;;18.60;74.50;;;;;;5026530;28;20055;-63
2022/05/04 11:06:08;;;;;;;68.50;10.20;;;18.60;74.60;;;;;;5023873;28;20210;-63
2022/05/04 11:08:36;;;;;;;94.15;12.38;;;18.70;75.10;;;;;;5042510;28;20044;-63
2022/05/04 11:11:05;;;;;;;88.25;13.43;;;18.70;74.20;;;;;;5034124;28;20048;-63
2022/05/04 11:13:31;;;;;;;82.45;13.55;;;18.80;74.00;;;;;;5045995;28;20032;-62
2022/05/04 11:15:58;;;;;;;62.63;11.98;;;18.90;73.70;;;;;;5042656;28;21083;-63
2022/05/04 11:18:24;;;;;;;87.18;12.93;;;19.00;73.50;;;;;;5029493;28;20607;-64
2022/05/04 11:20:50;;;;;;;102.55;14.70;;;19.00;73.30;;;;;;5036795;28;20041;-62
2022/05/04 11:23:25;;;;;;;103.80;14.50;;;19.10;73.10;;;;;;5060425;28;20039;-63
2022/05/04 11:25:50;;;;;;;96.83;13.47;;;19.10;73.10;;;;;;5045029;28;22741;-63
2022/05/04 11:28:23;;;;;;;81.22;12.63;;;19.10;72.70;;;;;;5041712;28;20297;-62
2022/05/04 11:30:48;;;;;;;84.07;12.77;;;19.20;72.50;;;;;;5018307;28;20502;-63
2022/05/04 11:33:14;;;;;;;91.00;13.80;;;19.30;72.30;;;;;;5057092;28;20035;-62
2022/05/04 11:35:42;;;;;;;102.00;14.07;;;19.30;72.40;;;;;;5040190;28;20025;-63
2022/05/04 11:38:07;;;;;;;146.90;15.80;;;19.40;72.30;;;;;;5030933;28;20047;-63
2022/05/04 11:40:33;;;;;;;120.28;16.85;;;19.40;72.10;;;;;;5028661;28;20055;-63
2022/05/04 11:42:58;;;;;;;110.13;14.13;;;19.50;72.00;;;;;;5056684;28;20160;-63
2022/05/04 11:45:24;;;;;;;89.30;14.07;;;19.50;71.70;;;;;;5047353;28;20140;-62
2022/05/04 11:47:51;;;;;;;119.13;15.88;;;19.60;71.40;;;;;;5038406;28;20055;-62
2022/05/04 11:50:17;;;;;;;111.05;15.00;;;19.70;71.40;;;;;;5033511;28;20024;-63
2022/05/04 11:52:44;;;;;;;141.70;18.73;;;19.80;71.20;;;;;;5046074;28;20066;-63
2022/05/04 11:55:09;;;;;;;151.95;17.85;;;19.90;70.70;;;;;;5071406;28;20040;-63
2022/05/04 11:57:41;;;;;;;164.98;19.98;;;20.00;70.40;;;;;;5055864;28;20037;-62
2022/05/04 12:00:16;;;;;;;211.75;26.30;;;20.10;70.40;;;;;;5038123;28;20066;-63
2022/05/04 12:02:42;;;;;;;212.07;24.73;;;20.20;70.00;;;;;;5044661;28;20171;-62
2022/05/04 12:05:08;;;;;;;186.32;24.08;;;20.30;70.00;;;;;;5041299;28;20039;-63
2022/05/04 12:07:33;;;;;;;159.68;21.85;;;20.30;69.90;;;;;;5033560;28;20032;-62
2022/05/04 12:09:59;;;;;;;187.15;23.42;;;20.30;69.90;;;;;;5035460;28;20032;-64
2022/05/04 12:12:24;;;;;;;166.23;20.73;;;20.40;70.00;;;;;;5052986;28;20051;-62
2022/05/04 12:14:53;;;;;;;198.38;24.15;;;20.40;70.00;;;;;;5053824;28;20020;-63
2022/05/04 12:17:25;;;;;;;203.68;24.35;;;20.40;69.90;;;;;;5039617;28;20100;-63
2022/05/04 12:19:51;;;;;;;198.73;22.67;;;20.50;69.80;;;;;;5035797;28;20075;-63
2022/05/04 12:22:16;;;;;;;203.82;23.95;;;20.60;69.70;;;;;;5032396;28;20548;-62
2022/05/04 12:24:43;;;;;;;187.73;24.35;;;20.60;69.40;;;;;;5032094;28;20051;-63
2022/05/04 12:27:09;;;;;;;194.77;24.33;;;20.60;69.30;;;;;;5042397;28;20526;-63
2022/05/04 12:35:03;;;;;;;145.60;21.42;;;20.80;68.80;;;;;;5050099;28;20070;-63
2022/05/04 12:37:32;;;;;;;154.80;21.33;;;20.80;68.40;;;;;;5025362;28;20047;-62
2022/05/04 12:39:59;;;;;;;172.63;21.20;;;20.90;68.00;;;;;;5041546;28;20303;-62
2022/05/04 12:42:24;;;;;;;194.18;22.23;;;21.00;68.00;;;;;;5031947;28;20036;-63
2022/05/04 12:44:50;;;;;;;159.95;20.02;;;21.10;68.30;;;;;;5032535;28;20066;-62
2022/05/04 12:47:16;;;;;;;161.30;21.15;;;21.20;68.30;;;;;;5031817;28;20160;-64
2022/05/04 12:49:42;;;;;;;160.27;19.60;;;21.20;68.00;;;;;;5031355;28;20036;-62
2022/05/04 12:52:08;;;;;;;152.00;20.08;;;21.20;67.70;;;;;;5043459;28;20128;-62
2022/05/04 12:54:34;;;;;;;200.07;21.85;;;21.30;67.70;;;;;;5030373;28;20032;-63
2022/05/04 12:57:00;;;;;;;133.90;18.67;;;21.30;67.90;;;;;;5017990;28;20139;-61
2022/05/04 12:59:26;;;;;;;145.98;19.85;;;21.30;68.00;;;;;;5045584;28;20066;-62
2022/05/04 13:01:51;;;;;;;147.85;17.58;;;21.30;68.10;;;;;;5064762;28;20040;-61
2022/05/04 13:04:18;;;;;;;132.00;17.33;;;21.30;68.00;;;;;;5042165;28;20132;-61
2022/05/04 13:06:43;;;;;;;135.68;17.70;;;21.40;68.10;;;;;;5027044;28;20111;-62
2022/05/04 13:09:09;;;;;;;143.35;18.20;;;21.40;68.00;;;;;;5025680;28;20595;-61
2022/05/04 13:11:35;;;;;;;117.05;16.45;;;21.40;68.10;;;;;;5041536;28;20038;-62
2022/05/04 13:14:00;;;;;;;92.55;14.80;;;21.40;67.90;;;;;;5049196;28;20482;-61